This is the latest recevied weather packets stored in our database for station/object DL2GKM-6. If no packets are shown the sender has not sent any weather packets the latest 1 day(s).
| Time | Temp. | Humidity | Pressure | Rain* | Wind** | Luminosity | Snow |
|---|---|---|---|---|---|---|---|
| 1778008221 | 13.33° C | 83% | 1007.2 hPa | 128.78 mm | 2.68 m/s, 106° | - | - |
| 1778007954 | 13.33° C | 83% | 1007.1 hPa | 128.78 mm | 4.02 m/s, 176° | - | - |
| 1778007661 | 13.33° C | 83% | 1007.1 hPa | 128.78 mm | 2.24 m/s, 143° | - | - |
| 1778007394 | 13.33° C | 84% | 1007.2 hPa | 128.78 mm | 2.24 m/s, 165° | - | - |
| 1778007101 | 13.33° C | 84% | 1007.1 hPa | 128.78 mm | 0 m/s | - | - |
| 1778006823 | 13.89° C | 84% | 1007.1 hPa | 128.78 mm | 2.24 m/s, 210° | - | - |
| 1778006561 | 13.89° C | 84% | 1007.1 hPa | 128.78 mm | 2.24 m/s, 148° | - | - |
| 1778006295 | 13.89° C | 84% | 1006.9 hPa | 128.78 mm | 0.89 m/s, 199° | - | - |
| 1778006051 | 13.89° C | 84% | 1006.9 hPa | 128.78 mm | 1.34 m/s, 174° | - | - |
| 1778005751 | 13.89° C | 84% | 1006.9 hPa | 128.78 mm | 2.24 m/s, 148° | - | - |
| 1778005505 | 13.89° C | 85% | 1007.1 hPa | 128.78 mm | 0 m/s | - | - |
| 1778005214 | 13.89° C | 85% | 1006.9 hPa | 128.78 mm | 2.68 m/s, 182° | - | - |
| 1778004926 | 13.89° C | 85% | 1006.9 hPa | 128.78 mm | 3.13 m/s, 175° | - | - |
| 1778004686 | 13.89° C | 86% | 1006.8 hPa | 128.78 mm | 0.89 m/s, 178° | - | - |
| 1778004431 | 14.44° C | 87% | 1006.8 hPa | 128.78 mm | 0.89 m/s, 140° | - | - |
| 1778004179 | 14.44° C | 87% | 1006.9 hPa | 128.78 mm | 0.89 m/s, 85° | - | - |
| 1778003920 | 14.44° C | 87% | 1007.1 hPa | 128.78 mm | 0 m/s | - | - |
| 1778003634 | 14.44° C | 88% | 1007.1 hPa | 128.78 mm | 0.45 m/s, 168° | - | - |
| 1778003341 | 14.44° C | 88% | 1006.9 hPa | 128.78 mm | 0 m/s | - | - |
| 1778003056 | 14.44° C | 88% | 1006.9 hPa | 128.78 mm | 0 m/s | - | - |
| 1778002781 | 14.44° C | 88% | 1006.8 hPa | 128.52 mm | 0 m/s | - | - |
| 1778002502 | 14.44° C | 88% | 1006.9 hPa | 128.52 mm | 0 m/s | - | - |
| 1778002214 | 14.44° C | 88% | 1006.9 hPa | 128.52 mm | 0 m/s | - | - |
| 1778001954 | 14.44° C | 88% | 1006.9 hPa | 128.52 mm | 0 m/s | - | - |
| 1778001691 | 14.44° C | 87% | 1006.8 hPa | 128.52 mm | 0.45 m/s, 342° | - | - |
* Rain latest 24 hours (hover to see other rain measurements)
** Current wind speed in m/s (hover to see current wind gust speed)